createdAt,value
2024-03-07T00:03:20.493Z,80.39
2024-03-07T00:08:40.969Z,80.12
2024-03-07T00:14:01.873Z,80.21
2024-03-07T00:19:23.107Z,80.09
2024-03-07T00:24:44.085Z,80.11
2024-03-07T00:30:06.568Z,80.35
2024-03-07T00:35:27.214Z,80.24
2024-03-07T00:40:48.023Z,80.27
2024-03-07T00:46:08.709Z,80.28
2024-03-07T00:51:30.587Z,80.19
2024-03-07T00:56:51.492Z,80.28
2024-03-07T01:02:12.209Z,80.16
2024-03-07T01:07:32.837Z,79.85
2024-03-07T01:12:54.653Z,79.59
2024-03-07T01:18:15.733Z,79.43
2024-03-07T01:23:36.292Z,79.41
2024-03-07T01:29:00.361Z,79.02
2024-03-07T01:34:21.067Z,79.31
2024-03-07T01:39:41.661Z,79.03
2024-03-07T01:45:02.372Z,79.15
2024-03-07T01:50:23.132Z,79.47
2024-03-07T01:55:45.426Z,79.49
2024-03-07T02:01:06.238Z,79.33
2024-03-07T02:06:27.083Z,79.41
2024-03-07T02:11:50.898Z,79.41
2024-03-07T02:17:11.639Z,79.47
2024-03-07T02:22:32.344Z,79.23
2024-03-07T02:27:52.959Z,79.12
2024-03-07T02:33:13.759Z,79.14
2024-03-07T02:38:35.704Z,79.03
2024-03-07T02:43:56.886Z,79.18
2024-03-07T02:49:17.543Z,79.16
2024-03-07T02:54:38.401Z,79.18
2024-03-07T02:59:59.015Z,79.23
2024-03-07T03:05:21.030Z,79.18
2024-03-07T03:10:42.203Z,79.51
2024-03-07T03:16:05.994Z,79.50
2024-03-07T03:21:26.883Z,79.52
2024-03-07T03:26:47.331Z,79.25
2024-03-07T03:32:08.567Z,79.18
2024-03-07T03:37:28.919Z,79.05
2024-03-07T03:42:49.916Z,78.81
2024-03-07T03:48:10.520Z,78.77
2024-03-07T03:53:31.191Z,78.57
2024-03-07T03:58:51.824Z,78.73
2024-03-07T04:04:12.343Z,79.11
2024-03-07T04:09:32.788Z,78.87
2024-03-07T04:14:55.913Z,78.75
2024-03-07T04:20:19.090Z,78.65
2024-03-07T04:25:41.156Z,78.69
2024-03-07T04:31:01.913Z,78.42
2024-03-07T04:36:22.419Z,78.56
2024-03-07T04:41:43.059Z,78.35
2024-03-07T04:47:04.926Z,78.58
2024-03-07T04:52:25.464Z,78.92
2024-03-07T04:57:46.150Z,78.91
2024-03-07T05:03:06.653Z,78.93
2024-03-07T05:08:27.666Z,79.00
2024-03-07T05:13:49.706Z,79.17
2024-03-07T05:19:10.528Z,78.85
2024-03-07T05:24:30.932Z,79.07
2024-03-07T05:29:51.845Z,79.19
2024-03-07T05:35:12.819Z,79.36
2024-03-07T05:40:34.340Z,79.40
2024-03-07T05:45:55.395Z,79.62
2024-03-07T05:51:16.009Z,79.70
2024-03-07T05:56:37.229Z,79.97
2024-03-07T06:01:57.773Z,80.24
2024-03-07T06:07:36.908Z,80.09
2024-03-07T06:13:05.865Z,80.50
2024-03-07T06:18:32.640Z,80.35
2024-03-07T06:24:00.381Z,80.52
2024-03-07T06:29:21.039Z,80.48
2024-03-07T06:34:41.727Z,80.55
2024-03-07T06:40:07.205Z,80.47
2024-03-07T06:45:27.577Z,80.46
2024-03-07T06:50:47.996Z,80.22
2024-03-07T06:56:09.003Z,80.14
2024-03-07T07:01:30.560Z,80.22
2024-03-07T07:06:50.991Z,79.79
2024-03-07T07:12:12.267Z,79.79
2024-03-07T07:17:32.948Z,79.52
2024-03-07T07:22:54.262Z,79.24
2024-03-07T07:28:14.722Z,78.46
2024-03-07T07:33:35.506Z,78.21
2024-03-07T07:38:55.972Z,78.22
2024-03-07T07:44:17.213Z,78.25
2024-03-07T07:49:39.594Z,78.14
2024-03-07T07:55:00.745Z,77.94
2024-03-07T08:00:29.628Z,77.92
2024-03-07T08:05:50.720Z,78.02
2024-03-07T08:11:13.015Z,77.98
2024-03-07T08:16:34.340Z,77.95
2024-03-07T08:21:55.237Z,77.74
2024-03-07T08:27:15.641Z,77.44
2024-03-07T08:32:39.341Z,77.17
2024-03-07T08:37:59.828Z,77.01
2024-03-07T08:43:20.359Z,76.71
2024-03-07T08:48:41.260Z,76.18
2024-03-07T08:54:02.055Z,76.10
2024-03-07T08:59:22.634Z,75.94
2024-03-07T09:04:43.121Z,75.82
2024-03-07T09:10:05.113Z,76.30
2024-03-07T09:15:25.954Z,76.20
2024-03-07T09:20:46.758Z,76.40
2024-03-07T09:26:08.432Z,75.14
2024-03-07T09:31:28.914Z,75.49
2024-03-07T09:36:50.053Z,75.44
2024-03-07T09:42:11.006Z,75.65
2024-03-07T09:47:31.989Z,75.93
2024-03-07T09:52:55.121Z,75.73
2024-03-07T09:58:20.972Z,75.50
2024-03-07T10:03:45.765Z,75.26
2024-03-07T10:09:06.862Z,76.88
2024-03-07T10:14:27.744Z,76.20
2024-03-07T10:19:50.061Z,76.06
2024-03-07T10:25:11.698Z,76.13
2024-03-07T10:30:40.981Z,76.08
2024-03-07T10:36:02.813Z,75.50
2024-03-07T10:41:28.941Z,75.73
2024-03-07T10:46:54.103Z,76.06
2024-03-07T10:52:35.579Z,75.63
2024-03-07T10:58:21.261Z,75.12
2024-03-07T11:03:43.649Z,74.92
2024-03-07T11:09:11.708Z,74.92
2024-03-07T11:14:34.728Z,75.15
2024-03-07T11:19:55.254Z,74.58
2024-03-07T11:25:18.416Z,74.88
2024-03-07T11:30:39.927Z,75.18
2024-03-07T11:36:02.721Z,74.95
2024-03-07T11:41:23.863Z,75.02
2024-03-07T11:46:44.646Z,74.84
2024-03-07T11:52:05.772Z,74.34
2024-03-07T11:57:33.669Z,74.33
2024-03-07T12:02:55.566Z,74.48
2024-03-07T12:08:16.244Z,74.69
2024-03-07T12:13:37.257Z,74.89
2024-03-07T12:18:58.242Z,74.87
2024-03-07T12:24:19.176Z,74.96
2024-03-07T12:29:43.447Z,74.37
2024-03-07T12:35:05.810Z,74.64
2024-03-07T12:40:30.247Z,74.66
2024-03-07T12:45:52.680Z,74.86
2024-03-07T12:51:18.301Z,75.16
2024-03-07T12:56:40.529Z,75.55
2024-03-07T13:02:01.224Z,75.98
2024-03-07T13:07:21.824Z,75.72
2024-03-07T13:12:46.498Z,75.68
2024-03-07T13:18:08.611Z,75.52
2024-03-07T13:23:29.531Z,75.91
2024-03-07T13:28:52.155Z,75.73
2024-03-07T13:34:16.027Z,75.79
2024-03-07T13:39:37.197Z,76.25
2024-03-07T13:44:57.974Z,76.00
2024-03-07T13:50:35.669Z,76.04
2024-03-07T13:56:15.950Z,76.21
2024-03-07T14:02:12.431Z,76.67
2024-03-07T14:08:11.191Z,76.98
2024-03-07T14:13:41.122Z,77.40
2024-03-07T14:19:30.266Z,76.96
2024-03-07T14:24:54.362Z,76.46
2024-03-07T14:30:14.978Z,77.53
2024-03-07T14:36:11.265Z,77.08
2024-03-07T14:41:50.022Z,77.21
2024-03-07T14:47:12.140Z,77.22
2024-03-07T14:52:32.910Z,77.01
2024-03-07T14:57:53.426Z,77.05
2024-03-07T15:03:19.794Z,76.75
2024-03-07T15:08:42.097Z,77.08
2024-03-07T15:14:02.594Z,76.88
2024-03-07T15:19:24.089Z,77.14
2024-03-07T15:24:44.606Z,77.41
2024-03-07T15:30:12.045Z,77.45
2024-03-07T15:35:33.964Z,77.49
2024-03-07T15:41:03.561Z,77.67
2024-03-07T15:46:24.080Z,77.63
2024-03-07T15:51:46.813Z,77.40
2024-03-07T15:57:07.533Z,77.70
2024-03-07T16:02:27.755Z,77.64
2024-03-07T16:07:48.367Z,77.56
2024-03-07T16:13:10.738Z,77.45
2024-03-07T16:18:31.515Z,77.43
2024-03-07T16:23:53.565Z,77.88
2024-03-07T16:29:14.397Z,77.70
2024-03-07T16:34:38.058Z,77.65
2024-03-07T16:39:58.774Z,77.52
2024-03-07T16:45:21.314Z,77.38
2024-03-07T16:50:42.627Z,77.56
2024-03-07T16:56:05.078Z,77.73
2024-03-07T17:01:25.727Z,77.82
2024-03-07T17:06:46.292Z,77.93
2024-03-07T17:12:07.163Z,77.96
2024-03-07T17:17:28.786Z,78.16
2024-03-07T17:22:49.533Z,78.28
2024-03-07T17:28:10.480Z,78.18
2024-03-07T17:33:31.180Z,78.25
2024-03-07T17:38:51.816Z,78.34
2024-03-07T17:44:18.077Z,78.51
2024-03-07T17:49:41.733Z,78.53
2024-03-07T17:55:02.331Z,78.70
2024-03-07T18:00:28.965Z,78.79
2024-03-07T18:05:54.120Z,78.78
2024-03-07T18:11:15.928Z,79.10
2024-03-07T18:16:38.609Z,79.02
2024-03-07T18:21:59.747Z,79.32
2024-03-07T18:27:21.351Z,79.02
2024-03-07T18:32:42.429Z,79.28
2024-03-07T18:38:03.737Z,79.53
2024-03-07T18:43:24.168Z,79.23
2024-03-07T18:48:44.522Z,79.41
2024-03-07T18:54:08.489Z,79.48
2024-03-07T18:59:29.099Z,79.34
2024-03-07T19:04:49.742Z,79.47
2024-03-07T19:10:18.016Z,79.52
2024-03-07T19:15:38.889Z,79.60
2024-03-07T19:20:59.479Z,79.21
2024-03-07T19:26:21.302Z,79.53
2024-03-07T19:31:41.853Z,79.50
2024-03-07T19:37:02.377Z,79.47
2024-03-07T19:42:23.230Z,79.37
2024-03-07T19:47:44.348Z,79.58
2024-03-07T19:53:14.142Z,79.03
2024-03-07T19:58:34.755Z,79.30
2024-03-07T20:03:55.496Z,79.31
2024-03-07T20:09:18.267Z,79.22
2024-03-07T20:14:40.282Z,78.91
2024-03-07T20:20:00.908Z,79.31
2024-03-07T20:25:22.348Z,79.12
2024-03-07T20:30:45.781Z,78.86
2024-03-07T20:36:09.475Z,78.95
2024-03-07T20:41:31.445Z,78.63
2024-03-07T20:46:52.430Z,78.84
2024-03-07T20:52:12.739Z,78.66
2024-03-07T20:57:34.133Z,78.72
2024-03-07T21:02:57.774Z,78.70
2024-03-07T21:08:19.212Z,78.80
2024-03-07T21:13:40.327Z,78.80
2024-03-07T21:19:01.419Z,79.11
2024-03-07T21:24:22.156Z,79.74
2024-03-07T21:29:42.731Z,79.90
2024-03-07T21:35:06.148Z,79.99
2024-03-07T21:40:26.457Z,79.81
2024-03-07T21:45:47.090Z,79.76
2024-03-07T21:51:11.095Z,79.67
2024-03-07T21:56:31.948Z,79.78
2024-03-07T22:01:52.492Z,79.62
2024-03-07T22:07:16.074Z,79.75
2024-03-07T22:12:37.739Z,79.77
2024-03-07T22:17:58.340Z,79.52
2024-03-07T22:23:18.974Z,79.76
2024-03-07T22:28:39.767Z,79.33
2024-03-07T22:34:00.284Z,79.45
2024-03-07T22:39:20.941Z,79.25
2024-03-07T22:44:43.122Z,79.65
2024-03-07T22:50:13.664Z,79.31
2024-03-07T22:55:44.080Z,79.32
2024-03-07T23:01:05.439Z,79.29
2024-03-07T23:06:35.162Z,79.40
2024-03-07T23:11:56.837Z,79.24
2024-03-07T23:17:18.314Z,79.21
2024-03-07T23:22:38.835Z,79.25
2024-03-07T23:28:01.323Z,78.99
2024-03-07T23:33:22.244Z,79.14
2024-03-07T23:38:42.936Z,79.30
2024-03-07T23:44:03.351Z,79.36
2024-03-07T23:49:25.178Z,79.46
2024-03-07T23:54:46.082Z,79.45
